<?xml version='1.0' encoding='UTF-8'?><gpx version="1.1" creator="JPX - https://github.com/jenetics/jpx" xmlns="http://www.topografix.com/GPX/1/1"><trk><trkseg><trkpt lat="44.12327" lon="11.1860376"><ele>946.0</ele><time>2026-05-02T09:08:33.394Z</time></trkpt><trkpt lat="44.1233393" lon="11.1861128"><ele>945.9999999999999</ele><time>2026-05-02T09:08:36.389Z</time></trkpt><trkpt lat="44.1233908" lon="11.1861818"><ele>945.9999999999999</ele><time>2026-05-02T09:08:38.386Z</time></trkpt><trkpt lat="44.1234389" lon="11.1862719"><ele>946.0</ele><time>2026-05-02T09:08:40.399Z</time></trkpt><trkpt lat="44.1234599" lon="11.186409"><ele>946.0</ele><time>2026-05-02T09:08:42.389Z</time></trkpt><trkpt lat="44.1234616" lon="11.1865667"><ele>947.4999999999999</ele><time>2026-05-02T09:08:44.389Z</time></trkpt><trkpt lat="44.1234539" lon="11.1866549"><ele>949.0</ele><time>2026-05-02T09:08:45.383Z</time></trkpt><trkpt lat="44.1234315" lon="11.1868339"><ele>950.5</ele><time>2026-05-02T09:08:47.384Z</time></trkpt><trkpt lat="44.123412" lon="11.1869304"><ele>952.0</ele><time>2026-05-02T09:08:48.369Z</time></trkpt><trkpt lat="44.1233896" lon="11.1870361"><ele>953.4999999999999</ele><time>2026-05-02T09:08:49.372Z</time></trkpt><trkpt lat="44.1233713" lon="11.1871404"><ele>955.0</ele><time>2026-05-02T09:08:50.372Z</time></trkpt><trkpt lat="44.1233549" lon="11.1872514"><ele>954.5714285714284</ele><time>2026-05-02T09:08:51.372Z</time></trkpt><trkpt lat="44.1233461" lon="11.1873663"><ele>954.1428571428571</ele><time>2026-05-02T09:08:52.369Z</time></trkpt><trkpt lat="44.1233375" lon="11.1874741"><ele>953.7142857142857</ele><time>2026-05-02T09:08:53.371Z</time></trkpt><trkpt lat="44.1233311" lon="11.1875773"><ele>953.2857142857142</ele><time>2026-05-02T09:08:54.371Z</time></trkpt><trkpt lat="44.1233268" lon="11.1876734"><ele>952.8571428571429</ele><time>2026-05-02T09:08:55.366Z</time></trkpt><trkpt lat="44.1233219" lon="11.1877654"><ele>952.4285714285714</ele><time>2026-05-02T09:08:56.368Z</time></trkpt><trkpt lat="44.1233127" lon="11.187854"><ele>952.0</ele><time>2026-05-02T09:08:57.367Z</time></trkpt><trkpt lat="44.1232946" lon="11.1880421"><ele>951.9999999999999</ele><time>2026-05-02T09:08:59.366Z</time></trkpt><trkpt lat="44.1232895" lon="11.1881612"><ele>952.0</ele><time>2026-05-02T09:09:00.372Z</time></trkpt><trkpt lat="44.1232937" lon="11.1882769"><ele>952.0</ele><time>2026-05-02T09:09:01.369Z</time></trkpt><trkpt lat="44.1232966" lon="11.1883993"><ele>952.0</ele><time>2026-05-02T09:09:02.368Z</time></trkpt><trkpt lat="44.1232967" lon="11.1885172"><ele>951.9999999999999</ele><time>2026-05-02T09:09:03.37Z</time></trkpt><trkpt lat="44.1232852" lon="11.188637"><ele>952.0</ele><time>2026-05-02T09:09:04.369Z</time></trkpt><trkpt lat="44.1232603" lon="11.1887536"><ele>955.0</ele><time>2026-05-02T09:09:05.374Z</time></trkpt><trkpt lat="44.1232253" lon="11.1888668"><ele>958.0</ele><time>2026-05-02T09:09:06.378Z</time></trkpt><trkpt lat="44.1231919" lon="11.1889827"><ele>961.0</ele><time>2026-05-02T09:09:07.369Z</time></trkpt><trkpt lat="44.1231631" lon="11.1890996"><ele>964.0</ele><time>2026-05-02T09:09:08.373Z</time></trkpt><trkpt lat="44.1231244" lon="11.1892136"><ele>967.0</ele><time>2026-05-02T09:09:09.376Z</time></trkpt><trkpt lat="44.1230828" lon="11.1893306"><ele>967.0</ele><time>2026-05-02T09:09:10.375Z</time></trkpt><trkpt lat="44.1230485" lon="11.1894502"><ele>967.0</ele><time>2026-05-02T09:09:11.369Z</time></trkpt><trkpt lat="44.123028" lon="11.1895721"><ele>967.0</ele><time>2026-05-02T09:09:12.369Z</time></trkpt><trkpt lat="44.1230171" lon="11.1897056"><ele>967.0</ele><time>2026-05-02T09:09:13.368Z</time></trkpt><trkpt lat="44.1230204" lon="11.1898376"><ele>967.0</ele><time>2026-05-02T09:09:14.371Z</time></trkpt><trkpt lat="44.1230331" lon="11.1899645"><ele>967.2</ele><time>2026-05-02T09:09:15.366Z</time></trkpt><trkpt lat="44.1230508" lon="11.190085"><ele>967.4000000000001</ele><time>2026-05-02T09:09:16.368Z</time></trkpt><trkpt lat="44.123072" lon="11.1902074"><ele>967.5999999999999</ele><time>2026-05-02T09:09:17.368Z</time></trkpt><trkpt lat="44.1230899" lon="11.1903356"><ele>967.8</ele><time>2026-05-02T09:09:18.371Z</time></trkpt><trkpt lat="44.1231206" lon="11.1904635"><ele>968.0</ele><time>2026-05-02T09:09:19.37Z</time></trkpt><trkpt lat="44.1231599" lon="11.190583"><ele>970.4</ele><time>2026-05-02T09:09:20.367Z</time></trkpt><trkpt lat="44.1232026" lon="11.1906978"><ele>972.8</ele><time>2026-05-02T09:09:21.372Z</time></trkpt><trkpt lat="44.1232461" lon="11.1908132"><ele>975.2</ele><time>2026-05-02T09:09:22.376Z</time></trkpt><trkpt lat="44.12329" lon="11.1909334"><ele>977.6</ele><time>2026-05-02T09:09:23.369Z</time></trkpt><trkpt lat="44.1233454" lon="11.1910465"><ele>980.0</ele><time>2026-05-02T09:09:24.377Z</time></trkpt><trkpt lat="44.1234039" lon="11.1911552"><ele>972.6</ele><time>2026-05-02T09:09:25.375Z</time></trkpt><trkpt lat="44.1234684" lon="11.191257"><ele>965.2</ele><time>2026-05-02T09:09:26.378Z</time></trkpt><trkpt lat="44.1235335" lon="11.1913573"><ele>957.8</ele><time>2026-05-02T09:09:27.377Z</time></trkpt><trkpt lat="44.1235929" lon="11.1914495"><ele>950.4</ele><time>2026-05-02T09:09:28.376Z</time></trkpt><trkpt lat="44.1236433" lon="11.1915554"><ele>943.0</ele><time>2026-05-02T09:09:29.377Z</time></trkpt><trkpt lat="44.1236998" lon="11.1916546"><ele>942.9999999999999</ele><time>2026-05-02T09:09:30.381Z</time></trkpt><trkpt lat="44.1237383" lon="11.1917597"><ele>943.0</ele><time>2026-05-02T09:09:31.378Z</time></trkpt><trkpt lat="44.1237669" lon="11.1918574"><ele>943.0</ele><time>2026-05-02T09:09:32.379Z</time></trkpt><trkpt lat="44.123776" lon="11.1919574"><ele>943.0</ele><time>2026-05-02T09:09:33.378Z</time></trkpt><trkpt lat="44.1237523" lon="11.1920484"><ele>942.9999999999999</ele><time>2026-05-02T09:09:34.377Z</time></trkpt><trkpt lat="44.1237047" lon="11.1921287"><ele>943.0</ele><time>2026-05-02T09:09:35.38Z</time></trkpt><trkpt lat="44.1236428" lon="11.1921934"><ele>943.0</ele><time>2026-05-02T09:09:36.375Z</time></trkpt><trkpt lat="44.1235671" lon="11.1922658"><ele>943.0</ele><time>2026-05-02T09:09:37.387Z</time></trkpt><trkpt lat="44.1235001" lon="11.1923568"><ele>943.0</ele><time>2026-05-02T09:09:38.363Z</time></trkpt><trkpt lat="44.123442" lon="11.1924602"><ele>943.0</ele><time>2026-05-02T09:09:39.366Z</time></trkpt><trkpt lat="44.1233889" lon="11.1925823"><ele>943.0</ele><time>2026-05-02T09:09:40.371Z</time></trkpt><trkpt lat="44.1233494" lon="11.1927096"><ele>941.4</ele><time>2026-05-02T09:09:41.368Z</time></trkpt><trkpt lat="44.1233098" lon="11.1928235"><ele>939.8</ele><time>2026-05-02T09:09:42.37Z</time></trkpt><trkpt lat="44.1232759" lon="11.1929411"><ele>938.2</ele><time>2026-05-02T09:09:43.37Z</time></trkpt><trkpt lat="44.1232517" lon="11.1930694"><ele>936.6</ele><time>2026-05-02T09:09:44.37Z</time></trkpt><trkpt lat="44.1232425" lon="11.1932028"><ele>935.0</ele><time>2026-05-02T09:09:45.372Z</time></trkpt><trkpt lat="44.1232391" lon="11.1933375"><ele>933.0</ele><time>2026-05-02T09:09:46.374Z</time></trkpt><trkpt lat="44.1232403" lon="11.1934767"><ele>931.0</ele><time>2026-05-02T09:09:47.371Z</time></trkpt><trkpt lat="44.1232389" lon="11.1936253"><ele>929.0</ele><time>2026-05-02T09:09:48.374Z</time></trkpt><trkpt lat="44.123238" lon="11.1937743"><ele>927.0</ele><time>2026-05-02T09:09:49.372Z</time></trkpt><trkpt lat="44.1232446" lon="11.19392"><ele>925.0</ele><time>2026-05-02T09:09:50.375Z</time></trkpt><trkpt lat="44.123253" lon="11.1940637"><ele>924.25</ele><time>2026-05-02T09:09:51.371Z</time></trkpt><trkpt lat="44.1232657" lon="11.1942124"><ele>923.5</ele><time>2026-05-02T09:09:52.371Z</time></trkpt><trkpt lat="44.1232747" lon="11.1943699"><ele>922.75</ele><time>2026-05-02T09:09:53.365Z</time></trkpt><trkpt lat="44.1232719" lon="11.1945276"><ele>922.0</ele><time>2026-05-02T09:09:54.37Z</time></trkpt><trkpt lat="44.1232557" lon="11.1946904"><ele>919.75</ele><time>2026-05-02T09:09:55.366Z</time></trkpt><trkpt lat="44.123235" lon="11.1948557"><ele>917.5</ele><time>2026-05-02T09:09:56.371Z</time></trkpt><trkpt lat="44.1232149" lon="11.1950275"><ele>915.25</ele><time>2026-05-02T09:09:57.37Z</time></trkpt><trkpt lat="44.1231946" lon="11.1952025"><ele>913.0</ele><time>2026-05-02T09:09:58.37Z</time></trkpt><trkpt lat="44.1231783" lon="11.1953839"><ele>914.75</ele><time>2026-05-02T09:09:59.375Z</time></trkpt><trkpt lat="44.1231661" lon="11.1955637"><ele>916.5</ele><time>2026-05-02T09:10:00.373Z</time></trkpt><trkpt lat="44.1231508" lon="11.1957395"><ele>918.25</ele><time>2026-05-02T09:10:01.366Z</time></trkpt><trkpt lat="44.1231401" lon="11.1959075"><ele>920.0</ele><time>2026-05-02T09:10:02.371Z</time></trkpt><trkpt lat="44.1231263" lon="11.1960744"><ele>920.0</ele><time>2026-05-02T09:10:03.37Z</time></trkpt><trkpt lat="44.1231157" lon="11.1962483"><ele>920.0</ele><time>2026-05-02T09:10:04.378Z</time></trkpt><trkpt lat="44.123106" lon="11.1964253"><ele>920.0</ele><time>2026-05-02T09:10:05.379Z</time></trkpt><trkpt lat="44.123088" lon="11.1966016"><ele>920.0</ele><time>2026-05-02T09:10:06.369Z</time></trkpt><trkpt lat="44.1230623" lon="11.1967834"><ele>916.4</ele><time>2026-05-02T09:10:07.365Z</time></trkpt><trkpt lat="44.12301" lon="11.1969466"><ele>912.8</ele><time>2026-05-02T09:10:08.386Z</time></trkpt><trkpt lat="44.1229452" lon="11.1970898"><ele>909.2</ele><time>2026-05-02T09:10:09.371Z</time></trkpt><trkpt lat="44.1228656" lon="11.1971741"><ele>905.6</ele><time>2026-05-02T09:10:10.369Z</time></trkpt><trkpt lat="44.1227718" lon="11.1971937"><ele>902.0</ele><time>2026-05-02T09:10:11.371Z</time></trkpt><trkpt lat="44.1226744" lon="11.1971774"><ele>902.0</ele><time>2026-05-02T09:10:12.364Z</time></trkpt><trkpt lat="44.1225793" lon="11.1971133"><ele>902.0</ele><time>2026-05-02T09:10:13.365Z</time></trkpt><trkpt lat="44.1224643" lon="11.1970233"><ele>902.0</ele><time>2026-05-02T09:10:14.359Z</time></trkpt><trkpt lat="44.1223285" lon="11.1969054"><ele>902.0</ele><time>2026-05-02T09:10:15.349Z</time></trkpt><trkpt lat="44.1221863" lon="11.1967876"><ele>905.0</ele><time>2026-05-02T09:10:16.362Z</time></trkpt><trkpt lat="44.1220575" lon="11.1966683"><ele>908.0</ele><time>2026-05-02T09:10:17.367Z</time></trkpt><trkpt lat="44.1219375" lon="11.1965507"><ele>911.0</ele><time>2026-05-02T09:10:18.363Z</time></trkpt><trkpt lat="44.1218206" lon="11.1964533"><ele>914.0</ele><time>2026-05-02T09:10:19.364Z</time></trkpt><trkpt lat="44.1217209" lon="11.1963569"><ele>914.0000000000001</ele><time>2026-05-02T09:10:20.361Z</time></trkpt><trkpt lat="44.1216452" lon="11.196283"><ele>914.0</ele><time>2026-05-02T09:10:21.363Z</time></trkpt><trkpt lat="44.1215765" lon="11.1962609"><ele>914.0</ele><time>2026-05-02T09:10:22.362Z</time></trkpt><trkpt lat="44.1215228" lon="11.1963629"><ele>914.0</ele><time>2026-05-02T09:10:24.368Z</time></trkpt><trkpt lat="44.121557" lon="11.1964489"><ele>914.0000000000001</ele><time>2026-05-02T09:10:25.366Z</time></trkpt><trkpt lat="44.1216127" lon="11.1965456"><ele>914.0</ele><time>2026-05-02T09:10:26.365Z</time></trkpt><trkpt lat="44.1216986" lon="11.1966344"><ele>907.5</ele><time>2026-05-02T09:10:27.368Z</time></trkpt><trkpt lat="44.1218104" lon="11.1967536"><ele>901.0</ele><time>2026-05-02T09:10:28.365Z</time></trkpt><trkpt lat="44.1219229" lon="11.1968785"><ele>894.5</ele><time>2026-05-02T09:10:29.373Z</time></trkpt><trkpt lat="44.1220201" lon="11.1969996"><ele>888.0</ele><time>2026-05-02T09:10:30.376Z</time></trkpt><trkpt lat="44.1221164" lon="11.1971205"><ele>888.0</ele><time>2026-05-02T09:10:31.374Z</time></trkpt><trkpt lat="44.1222094" lon="11.1972376"><ele>888.0</ele><time>2026-05-02T09:10:32.378Z</time></trkpt><trkpt lat="44.1222992" lon="11.1973437"><ele>888.0</ele><time>2026-05-02T09:10:33.376Z</time></trkpt><trkpt lat="44.1223901" lon="11.1974493"><ele>888.0</ele><time>2026-05-02T09:10:34.371Z</time></trkpt><trkpt lat="44.1224761" lon="11.1975473"><ele>886.5999999999999</ele><time>2026-05-02T09:10:35.38Z</time></trkpt><trkpt lat="44.1225553" lon="11.1976398"><ele>885.1999999999999</ele><time>2026-05-02T09:10:36.374Z</time></trkpt><trkpt lat="44.1226415" lon="11.197735"><ele>883.8</ele><time>2026-05-02T09:10:37.374Z</time></trkpt><trkpt lat="44.1227357" lon="11.1978245"><ele>882.4</ele><time>2026-05-02T09:10:38.38Z</time></trkpt><trkpt lat="44.1228306" lon="11.1978898"><ele>881.0</ele><time>2026-05-02T09:10:39.397Z</time></trkpt><trkpt lat="44.1229337" lon="11.1979469"><ele>881.0</ele><time>2026-05-02T09:10:40.373Z</time></trkpt><trkpt lat="44.1230361" lon="11.1979718"><ele>881.0</ele><time>2026-05-02T09:10:41.373Z</time></trkpt><trkpt lat="44.1231598" lon="11.1979732"><ele>881.0</ele><time>2026-05-02T09:10:42.367Z</time></trkpt><trkpt lat="44.1232828" lon="11.1979808"><ele>881.0</ele><time>2026-05-02T09:10:43.375Z</time></trkpt><trkpt lat="44.1234111" lon="11.1980095"><ele>881.75</ele><time>2026-05-02T09:10:44.377Z</time></trkpt><trkpt lat="44.1235402" lon="11.1980221"><ele>882.5</ele><time>2026-05-02T09:10:45.374Z</time></trkpt><trkpt lat="44.1236607" lon="11.1980377"><ele>883.25</ele><time>2026-05-02T09:10:46.373Z</time></trkpt><trkpt lat="44.1237824" lon="11.1980229"><ele>884.0</ele><time>2026-05-02T09:10:47.372Z</time></trkpt><trkpt lat="44.1238951" lon="11.1979704"><ele>884.0</ele><time>2026-05-02T09:10:48.375Z</time></trkpt><trkpt lat="44.1239984" lon="11.1978769"><ele>884.0</ele><time>2026-05-02T09:10:49.373Z</time></trkpt><trkpt lat="44.1240931" lon="11.1977403"><ele>884.0</ele><time>2026-05-02T09:10:50.378Z</time></trkpt><trkpt lat="44.1241644" lon="11.1975598"><ele>884.0</ele><time>2026-05-02T09:10:51.367Z</time></trkpt><trkpt lat="44.1242302" lon="11.1973646"><ele>882.6666666666667</ele><time>2026-05-02T09:10:52.369Z</time></trkpt><trkpt lat="44.124289" lon="11.1971619"><ele>881.3333333333333</ele><time>2026-05-02T09:10:53.367Z</time></trkpt><trkpt lat="44.1243386" lon="11.1969562"><ele>880.0</ele><time>2026-05-02T09:10:54.364Z</time></trkpt><trkpt lat="44.1243824" lon="11.1967612"><ele>880.0</ele><time>2026-05-02T09:10:55.369Z</time></trkpt><trkpt lat="44.124437" lon="11.1965535"><ele>880.0</ele><time>2026-05-02T09:10:56.367Z</time></trkpt><trkpt lat="44.1244663" lon="11.1963467"><ele>880.0</ele><time>2026-05-02T09:10:57.368Z</time></trkpt><trkpt lat="44.124489" lon="11.1961508"><ele>880.25</ele><time>2026-05-02T09:10:58.362Z</time></trkpt><trkpt lat="44.1245016" lon="11.1959328"><ele>880.5</ele><time>2026-05-02T09:10:59.367Z</time></trkpt><trkpt lat="44.1245104" lon="11.19573"><ele>880.75</ele><time>2026-05-02T09:11:00.369Z</time></trkpt><trkpt lat="44.124516" lon="11.1955265"><ele>881.0</ele><time>2026-05-02T09:11:01.367Z</time></trkpt><trkpt lat="44.1245164" lon="11.1953425"><ele>882.0</ele><time>2026-05-02T09:11:02.371Z</time></trkpt><trkpt lat="44.1245249" lon="11.1951578"><ele>883.0</ele><time>2026-05-02T09:11:03.375Z</time></trkpt><trkpt lat="44.1245449" lon="11.1949787"><ele>884.0</ele><time>2026-05-02T09:11:04.372Z</time></trkpt><trkpt lat="44.1245733" lon="11.1948129"><ele>885.0</ele><time>2026-05-02T09:11:05.375Z</time></trkpt><trkpt lat="44.1246221" lon="11.194684"><ele>886.8</ele><time>2026-05-02T09:11:06.37Z</time></trkpt><trkpt lat="44.1246929" lon="11.1945922"><ele>888.6</ele><time>2026-05-02T09:11:07.368Z</time></trkpt><trkpt lat="44.1247767" lon="11.1945222"><ele>890.4000000000001</ele><time>2026-05-02T09:11:08.364Z</time></trkpt><trkpt lat="44.1249071" lon="11.194492"><ele>892.2</ele><time>2026-05-02T09:11:09.381Z</time></trkpt><trkpt lat="44.1250197" lon="11.1944929"><ele>894.0</ele><time>2026-05-02T09:11:10.37Z</time></trkpt><trkpt lat="44.1251367" lon="11.1944648"><ele>888.5</ele><time>2026-05-02T09:11:11.371Z</time></trkpt><trkpt lat="44.1252441" lon="11.1944025"><ele>883.0</ele><time>2026-05-02T09:11:12.366Z</time></trkpt><trkpt lat="44.1253383" lon="11.1943199"><ele>877.5</ele><time>2026-05-02T09:11:13.378Z</time></trkpt><trkpt lat="44.1254121" lon="11.1941882"><ele>872.0</ele><time>2026-05-02T09:11:14.372Z</time></trkpt><trkpt lat="44.1254557" lon="11.1940342"><ele>871.6</ele><time>2026-05-02T09:11:15.369Z</time></trkpt><trkpt lat="44.125497" lon="11.1939015"><ele>871.2</ele><time>2026-05-02T09:11:16.372Z</time></trkpt><trkpt lat="44.1255523" lon="11.1938018"><ele>870.8</ele><time>2026-05-02T09:11:17.369Z</time></trkpt><trkpt lat="44.1256273" lon="11.1937266"><ele>870.4</ele><time>2026-05-02T09:11:18.37Z</time></trkpt><trkpt lat="44.1257122" lon="11.1936955"><ele>870.0</ele><time>2026-05-02T09:11:19.366Z</time></trkpt><trkpt lat="44.1258165" lon="11.1936922"><ele>870.0</ele><time>2026-05-02T09:11:20.368Z</time></trkpt><trkpt lat="44.1259222" lon="11.1937181"><ele>870.0</ele><time>2026-05-02T09:11:21.368Z</time></trkpt><trkpt lat="44.1260382" lon="11.1937481"><ele>870.0</ele><time>2026-05-02T09:11:22.372Z</time></trkpt><trkpt lat="44.1261552" lon="11.1937786"><ele>870.0</ele><time>2026-05-02T09:11:23.379Z</time></trkpt><trkpt lat="44.1262609" lon="11.1938104"><ele>870.0</ele><time>2026-05-02T09:11:24.375Z</time></trkpt><trkpt lat="44.126357" lon="11.1938158"><ele>870.0</ele><time>2026-05-02T09:11:25.384Z</time></trkpt><trkpt lat="44.1264388" lon="11.1937814"><ele>870.0</ele><time>2026-05-02T09:11:26.377Z</time></trkpt><trkpt lat="44.1265024" lon="11.1936964"><ele>870.0</ele><time>2026-05-02T09:11:27.387Z</time></trkpt><trkpt lat="44.1265166" lon="11.1935477"><ele>870.0</ele><time>2026-05-02T09:11:28.381Z</time></trkpt><trkpt lat="44.1265027" lon="11.1933612"><ele>871.5</ele><time>2026-05-02T09:11:29.379Z</time></trkpt><trkpt lat="44.126466" lon="11.1931625"><ele>873.0</ele><time>2026-05-02T09:11:30.377Z</time></trkpt><trkpt lat="44.1264409" lon="11.1929765"><ele>874.5</ele><time>2026-05-02T09:11:31.374Z</time></trkpt><trkpt lat="44.1264236" lon="11.1928014"><ele>876.0</ele><time>2026-05-02T09:11:32.375Z</time></trkpt><trkpt lat="44.1264154" lon="11.1926435"><ele>876.0</ele><time>2026-05-02T09:11:33.373Z</time></trkpt><trkpt lat="44.1264012" lon="11.192487"><ele>875.9999999999999</ele><time>2026-05-02T09:11:34.376Z</time></trkpt><trkpt lat="44.1264042" lon="11.1923336"><ele>875.9999999999999</ele><time>2026-05-02T09:11:35.386Z</time></trkpt><trkpt lat="44.1264476" lon="11.1921981"><ele>876.0</ele><time>2026-05-02T09:11:36.381Z</time></trkpt><trkpt lat="44.1265208" lon="11.1920886"><ele>876.0</ele><time>2026-05-02T09:11:37.38Z</time></trkpt><trkpt lat="44.1266008" lon="11.1919967"><ele>868.8</ele><time>2026-05-02T09:11:38.376Z</time></trkpt><trkpt lat="44.1266516" lon="11.1919094"><ele>861.5999999999999</ele><time>2026-05-02T09:11:39.376Z</time></trkpt><trkpt lat="44.126681" lon="11.1918098"><ele>854.4</ele><time>2026-05-02T09:11:40.391Z</time></trkpt><trkpt lat="44.1266688" lon="11.1916991"><ele>847.2</ele><time>2026-05-02T09:11:41.378Z</time></trkpt><trkpt lat="44.1266232" lon="11.1915811"><ele>840.0</ele><time>2026-05-02T09:11:42.382Z</time></trkpt><trkpt lat="44.1265649" lon="11.1914354"><ele>843.8</ele><time>2026-05-02T09:11:43.381Z</time></trkpt><trkpt lat="44.126509" lon="11.1913018"><ele>847.6</ele><time>2026-05-02T09:11:44.377Z</time></trkpt><trkpt lat="44.1264508" lon="11.1911621"><ele>851.4000000000001</ele><time>2026-05-02T09:11:45.371Z</time></trkpt><trkpt lat="44.1263882" lon="11.1910428"><ele>855.2</ele><time>2026-05-02T09:11:46.375Z</time></trkpt><trkpt lat="44.1263326" lon="11.1909318"><ele>859.0</ele><time>2026-05-02T09:11:47.369Z</time></trkpt><trkpt lat="44.126283" lon="11.1908238"><ele>859.0</ele><time>2026-05-02T09:11:48.37Z</time></trkpt><trkpt lat="44.1262573" lon="11.1907165"><ele>859.0000000000001</ele><time>2026-05-02T09:11:49.371Z</time></trkpt><trkpt lat="44.1262661" lon="11.1905991"><ele>859.0000000000001</ele><time>2026-05-02T09:11:50.374Z</time></trkpt><trkpt lat="44.1262931" lon="11.1904621"><ele>859.0</ele><time>2026-05-02T09:11:51.374Z</time></trkpt><trkpt lat="44.1263351" lon="11.1903169"><ele>859.0</ele><time>2026-05-02T09:11:52.372Z</time></trkpt><trkpt lat="44.1263407" lon="11.1901748"><ele>856.25</ele><time>2026-05-02T09:11:53.376Z</time></trkpt><trkpt lat="44.1262918" lon="11.1900419"><ele>853.5</ele><time>2026-05-02T09:11:54.378Z</time></trkpt><trkpt lat="44.1262173" lon="11.1899179"><ele>850.75</ele><time>2026-05-02T09:11:55.374Z</time></trkpt><trkpt lat="44.1261266" lon="11.1898053"><ele>848.0</ele><time>2026-05-02T09:11:56.372Z</time></trkpt><trkpt lat="44.1260373" lon="11.1897038"><ele>846.3333333333334</ele><time>2026-05-02T09:11:57.369Z</time></trkpt><trkpt lat="44.125953" lon="11.1896225"><ele>844.6666666666667</ele><time>2026-05-02T09:11:58.373Z</time></trkpt><trkpt lat="44.125877" lon="11.1895407"><ele>843.0</ele><time>2026-05-02T09:11:59.369Z</time></trkpt><trkpt lat="44.1258068" lon="11.1894594"><ele>841.3333333333333</ele><time>2026-05-02T09:12:00.37Z</time></trkpt><trkpt lat="44.1257505" lon="11.1893707"><ele>839.6666666666666</ele><time>2026-05-02T09:12:01.372Z</time></trkpt><trkpt lat="44.125721" lon="11.1892838"><ele>838.0</ele><time>2026-05-02T09:12:02.372Z</time></trkpt><trkpt lat="44.1257719" lon="11.1891406"><ele>838.0</ele><time>2026-05-02T09:12:04.37Z</time></trkpt><trkpt lat="44.1258614" lon="11.1890639"><ele>838.0</ele><time>2026-05-02T09:12:05.375Z</time></trkpt><trkpt lat="44.1259808" lon="11.1889732"><ele>838.0</ele><time>2026-05-02T09:12:06.367Z</time></trkpt><trkpt lat="44.1260905" lon="11.188863"><ele>838.0</ele><time>2026-05-02T09:12:07.367Z</time></trkpt><trkpt lat="44.126203" lon="11.1887612"><ele>839.0</ele><time>2026-05-02T09:12:08.371Z</time></trkpt><trkpt lat="44.1263124" lon="11.1886515"><ele>840.0</ele><time>2026-05-02T09:12:09.37Z</time></trkpt><trkpt lat="44.1264258" lon="11.188572"><ele>841.0</ele><time>2026-05-02T09:12:10.387Z</time></trkpt><trkpt lat="44.1265432" lon="11.1885281"><ele>842.0</ele><time>2026-05-02T09:12:11.393Z</time></trkpt><trkpt lat="44.1266612" lon="11.188535"><ele>838.4000000000001</ele><time>2026-05-02T09:12:12.38Z</time></trkpt><trkpt lat="44.1267693" lon="11.1885998"><ele>834.8000000000001</ele><time>2026-05-02T09:12:13.382Z</time></trkpt><trkpt lat="44.1268673" lon="11.1886943"><ele>831.2</ele><time>2026-05-02T09:12:14.376Z</time></trkpt><trkpt lat="44.1269464" lon="11.1887953"><ele>827.6</ele><time>2026-05-02T09:12:15.379Z</time></trkpt><trkpt lat="44.1269942" lon="11.1889126"><ele>824.0</ele><time>2026-05-02T09:12:16.378Z</time></trkpt><trkpt lat="44.1270042" lon="11.1890565"><ele>824.0</ele><time>2026-05-02T09:12:17.378Z</time></trkpt><trkpt lat="44.1269676" lon="11.1891986"><ele>824.0</ele><time>2026-05-02T09:12:18.378Z</time></trkpt><trkpt lat="44.1269146" lon="11.1893318"><ele>824.0</ele><time>2026-05-02T09:12:19.377Z</time></trkpt><trkpt lat="44.1268516" lon="11.1894546"><ele>824.0</ele><time>2026-05-02T09:12:20.379Z</time></trkpt><trkpt lat="44.1267859" lon="11.1895628"><ele>824.0</ele><time>2026-05-02T09:12:21.377Z</time></trkpt><trkpt lat="44.1267247" lon="11.1896574"><ele>824.0</ele><time>2026-05-02T09:12:22.367Z</time></trkpt><trkpt lat="44.1266804" lon="11.1897639"><ele>824.0</ele><time>2026-05-02T09:12:23.383Z</time></trkpt><trkpt lat="44.1266778" lon="11.1898852"><ele>824.0</ele><time>2026-05-02T09:12:24.378Z</time></trkpt><trkpt lat="44.1267214" lon="11.1900184"><ele>824.0</ele><time>2026-05-02T09:12:25.371Z</time></trkpt><trkpt lat="44.1267706" lon="11.1901468"><ele>824.0</ele><time>2026-05-02T09:12:26.368Z</time></trkpt><trkpt lat="44.1268334" lon="11.1902721"><ele>823.8000000000001</ele><time>2026-05-02T09:12:27.366Z</time></trkpt><trkpt lat="44.1269019" lon="11.1903853"><ele>823.6</ele><time>2026-05-02T09:12:28.367Z</time></trkpt><trkpt lat="44.1269694" lon="11.1904936"><ele>823.4</ele><time>2026-05-02T09:12:29.367Z</time></trkpt><trkpt lat="44.1270324" lon="11.1905967"><ele>823.2</ele><time>2026-05-02T09:12:30.37Z</time></trkpt><trkpt lat="44.1270765" lon="11.190696"><ele>823.0</ele><time>2026-05-02T09:12:31.362Z</time></trkpt><trkpt lat="44.1271043" lon="11.1907897"><ele>824.1666666666666</ele><time>2026-05-02T09:12:32.368Z</time></trkpt><trkpt lat="44.1271162" lon="11.1909024"><ele>825.3333333333333</ele><time>2026-05-02T09:12:33.362Z</time></trkpt><trkpt lat="44.1271382" lon="11.1909985"><ele>826.5</ele><time>2026-05-02T09:12:34.365Z</time></trkpt><trkpt lat="44.1271832" lon="11.1910718"><ele>827.6666666666667</ele><time>2026-05-02T09:12:35.377Z</time></trkpt><trkpt lat="44.1272469" lon="11.1911269"><ele>828.8333333333334</ele><time>2026-05-02T09:12:36.365Z</time></trkpt><trkpt lat="44.1273349" lon="11.1911816"><ele>830.0</ele><time>2026-05-02T09:12:37.366Z</time></trkpt><trkpt lat="44.1274323" lon="11.1912377"><ele>824.8</ele><time>2026-05-02T09:12:38.363Z</time></trkpt><trkpt lat="44.1275341" lon="11.1912692"><ele>819.6</ele><time>2026-05-02T09:12:39.367Z</time></trkpt><trkpt lat="44.1275969" lon="11.1913183"><ele>814.4000000000001</ele><time>2026-05-02T09:12:40.37Z</time></trkpt><trkpt lat="44.1276452" lon="11.1914837"><ele>809.2</ele><time>2026-05-02T09:12:42.385Z</time></trkpt><trkpt lat="44.1276319" lon="11.1916273"><ele>804.0</ele><time>2026-05-02T09:12:43.368Z</time></trkpt><trkpt lat="44.1276139" lon="11.1917872"><ele>804.0</ele><time>2026-05-02T09:12:44.366Z</time></trkpt><trkpt lat="44.1275877" lon="11.1919409"><ele>804.0</ele><time>2026-05-02T09:12:45.37Z</time></trkpt><trkpt lat="44.1275608" lon="11.1920919"><ele>804.0</ele><time>2026-05-02T09:12:46.368Z</time></trkpt><trkpt lat="44.1275141" lon="11.1922297"><ele>804.0</ele><time>2026-05-02T09:12:47.37Z</time></trkpt><trkpt lat="44.1274525" lon="11.1923475"><ele>804.0</ele><time>2026-05-02T09:12:48.372Z</time></trkpt><trkpt lat="44.1273881" lon="11.1924438"><ele>803.1666666666666</ele><time>2026-05-02T09:12:49.363Z</time></trkpt><trkpt lat="44.1273479" lon="11.1925433"><ele>802.3333333333333</ele><time>2026-05-02T09:12:50.365Z</time></trkpt><trkpt lat="44.1273307" lon="11.192642"><ele>801.5</ele><time>2026-05-02T09:12:51.368Z</time></trkpt><trkpt lat="44.1273559" lon="11.1927509"><ele>800.6666666666666</ele><time>2026-05-02T09:12:52.363Z</time></trkpt><trkpt lat="44.1273928" lon="11.1928556"><ele>799.8333333333333</ele><time>2026-05-02T09:12:53.364Z</time></trkpt><trkpt lat="44.1274284" lon="11.1929646"><ele>799.0</ele><time>2026-05-02T09:12:54.365Z</time></trkpt><trkpt lat="44.1274484" lon="11.1930785"><ele>799.4000000000001</ele><time>2026-05-02T09:12:55.364Z</time></trkpt><trkpt lat="44.1274846" lon="11.1931779"><ele>799.8</ele><time>2026-05-02T09:12:56.364Z</time></trkpt><trkpt lat="44.1275457" lon="11.1932717"><ele>800.2</ele><time>2026-05-02T09:12:57.358Z</time></trkpt><trkpt lat="44.1276235" lon="11.1933608"><ele>800.5999999999999</ele><time>2026-05-02T09:12:58.35Z</time></trkpt><trkpt lat="44.1277156" lon="11.1934426"><ele>801.0</ele><time>2026-05-02T09:12:59.36Z</time></trkpt><trkpt lat="44.1277966" lon="11.1935347"><ele>801.0</ele><time>2026-05-02T09:13:00.367Z</time></trkpt><trkpt lat="44.1278649" lon="11.1936413"><ele>801.0</ele><time>2026-05-02T09:13:01.366Z</time></trkpt><trkpt lat="44.1279143" lon="11.1937644"><ele>801.0</ele><time>2026-05-02T09:13:02.368Z</time></trkpt><trkpt lat="44.1279456" lon="11.1939007"><ele>801.0</ele><time>2026-05-02T09:13:03.368Z</time></trkpt><trkpt lat="44.1279541" lon="11.1940527"><ele>801.0</ele><time>2026-05-02T09:13:04.363Z</time></trkpt><trkpt lat="44.1279457" lon="11.1942006"><ele>799.25</ele><time>2026-05-02T09:13:05.378Z</time></trkpt><trkpt lat="44.1278957" lon="11.1943328"><ele>797.5</ele><time>2026-05-02T09:13:06.367Z</time></trkpt><trkpt lat="44.1278216" lon="11.1944658"><ele>795.75</ele><time>2026-05-02T09:13:07.369Z</time></trkpt><trkpt lat="44.1277396" lon="11.1945707"><ele>794.0</ele><time>2026-05-02T09:13:08.367Z</time></trkpt><trkpt lat="44.127646" lon="11.1946548"><ele>794.0000000000001</ele><time>2026-05-02T09:13:09.362Z</time></trkpt><trkpt lat="44.1275583" lon="11.1947245"><ele>794.0</ele><time>2026-05-02T09:13:10.361Z</time></trkpt><trkpt lat="44.1274733" lon="11.1947749"><ele>794.0</ele><time>2026-05-02T09:13:11.366Z</time></trkpt><trkpt lat="44.1274042" lon="11.1948403"><ele>794.0</ele><time>2026-05-02T09:13:12.368Z</time></trkpt><trkpt lat="44.1273624" lon="11.1949283"><ele>794.0000000000001</ele><time>2026-05-02T09:13:13.381Z</time></trkpt><trkpt lat="44.1273536" lon="11.1950355"><ele>794.0</ele><time>2026-05-02T09:13:14.365Z</time></trkpt><trkpt lat="44.1273522" lon="11.1951599"><ele>794.6</ele><time>2026-05-02T09:13:15.36Z</time></trkpt><trkpt lat="44.1273295" lon="11.1952743"><ele>795.2</ele><time>2026-05-02T09:13:16.363Z</time></trkpt><trkpt lat="44.1272928" lon="11.1953806"><ele>795.8000000000001</ele><time>2026-05-02T09:13:17.368Z</time></trkpt><trkpt lat="44.1272262" lon="11.1954613"><ele>796.4000000000001</ele><time>2026-05-02T09:13:18.368Z</time></trkpt><trkpt lat="44.1271262" lon="11.195515"><ele>797.0</ele><time>2026-05-02T09:13:19.362Z</time></trkpt><trkpt lat="44.1270233" lon="11.195563"><ele>797.0000000000001</ele><time>2026-05-02T09:13:20.365Z</time></trkpt><trkpt lat="44.1269261" lon="11.1956009"><ele>797.0</ele><time>2026-05-02T09:13:21.362Z</time></trkpt><trkpt lat="44.1268436" lon="11.195647"><ele>797.0</ele><time>2026-05-02T09:13:22.362Z</time></trkpt><trkpt lat="44.1267818" lon="11.195715"><ele>797.0</ele><time>2026-05-02T09:13:23.368Z</time></trkpt><trkpt lat="44.1267548" lon="11.1958147"><ele>797.0000000000001</ele><time>2026-05-02T09:13:24.363Z</time></trkpt><trkpt lat="44.1267737" lon="11.1959325"><ele>797.0</ele><time>2026-05-02T09:13:25.364Z</time></trkpt><trkpt lat="44.1268582" lon="11.1960353"><ele>792.6</ele><time>2026-05-02T09:13:26.359Z</time></trkpt><trkpt lat="44.1269244" lon="11.1961226"><ele>788.2</ele><time>2026-05-02T09:13:27.359Z</time></trkpt><trkpt lat="44.1269762" lon="11.1962268"><ele>783.8</ele><time>2026-05-02T09:13:28.365Z</time></trkpt><trkpt lat="44.1270015" lon="11.1963549"><ele>779.4</ele><time>2026-05-02T09:13:29.361Z</time></trkpt><trkpt lat="44.1270054" lon="11.1964993"><ele>775.0</ele><time>2026-05-02T09:13:30.361Z</time></trkpt><trkpt lat="44.1270031" lon="11.1966487"><ele>773.0</ele><time>2026-05-02T09:13:31.358Z</time></trkpt><trkpt lat="44.1269946" lon="11.1968035"><ele>771.0</ele><time>2026-05-02T09:13:32.357Z</time></trkpt><trkpt lat="44.1269857" lon="11.1969656"><ele>769.0</ele><time>2026-05-02T09:13:33.358Z</time></trkpt><trkpt lat="44.126986" lon="11.1971265"><ele>767.0</ele><time>2026-05-02T09:13:34.354Z</time></trkpt><trkpt lat="44.1269832" lon="11.1972904"><ele>764.4000000000001</ele><time>2026-05-02T09:13:35.366Z</time></trkpt><trkpt lat="44.1269852" lon="11.1974328"><ele>761.8000000000001</ele><time>2026-05-02T09:13:36.36Z</time></trkpt><trkpt lat="44.126999" lon="11.1975611"><ele>759.2</ele><time>2026-05-02T09:13:37.365Z</time></trkpt><trkpt lat="44.1270518" lon="11.1976611"><ele>756.6</ele><time>2026-05-02T09:13:38.364Z</time></trkpt><trkpt lat="44.1271302" lon="11.1977091"><ele>754.0</ele><time>2026-05-02T09:13:39.36Z</time></trkpt><trkpt lat="44.1272155" lon="11.1976688"><ele>754.0</ele><time>2026-05-02T09:13:40.361Z</time></trkpt><trkpt lat="44.1272863" lon="11.1975928"><ele>754.0</ele><time>2026-05-02T09:13:41.361Z</time></trkpt><trkpt lat="44.1273293" lon="11.1974589"><ele>754.0</ele><time>2026-05-02T09:13:42.361Z</time></trkpt><trkpt lat="44.1273478" lon="11.1972822"><ele>754.0</ele><time>2026-05-02T09:13:43.356Z</time></trkpt><trkpt lat="44.1273581" lon="11.1971045"><ele>751.5</ele><time>2026-05-02T09:13:44.373Z</time></trkpt><trkpt lat="44.127365" lon="11.1969301"><ele>749.0</ele><time>2026-05-02T09:13:45.359Z</time></trkpt><trkpt lat="44.1273733" lon="11.1967651"><ele>746.5</ele><time>2026-05-02T09:13:46.357Z</time></trkpt><trkpt lat="44.1273841" lon="11.1966164"><ele>744.0</ele><time>2026-05-02T09:13:47.361Z</time></trkpt><trkpt lat="44.1273949" lon="11.196474"><ele>744.0</ele><time>2026-05-02T09:13:48.364Z</time></trkpt><trkpt lat="44.1274048" lon="11.1963322"><ele>744.0</ele><time>2026-05-02T09:13:49.362Z</time></trkpt><trkpt lat="44.1274186" lon="11.196207"><ele>744.0</ele><time>2026-05-02T09:13:50.362Z</time></trkpt><trkpt lat="44.1274208" lon="11.1960847"><ele>744.0</ele><time>2026-05-02T09:13:51.363Z</time></trkpt><trkpt lat="44.1274252" lon="11.1959764"><ele>744.0</ele><time>2026-05-02T09:13:52.363Z</time></trkpt><trkpt lat="44.1274419" lon="11.195886"><ele>744.0</ele><time>2026-05-02T09:13:53.365Z</time></trkpt><trkpt lat="44.1275449" lon="11.1957803"><ele>744.0</ele><time>2026-05-02T09:13:55.361Z</time></trkpt><trkpt lat="44.1276397" lon="11.1957503"><ele>744.0</ele><time>2026-05-02T09:13:56.362Z</time></trkpt><trkpt lat="44.1277545" lon="11.1956946"><ele>744.0</ele><time>2026-05-02T09:13:57.364Z</time></trkpt><trkpt lat="44.1278608" lon="11.1956096"><ele>744.0</ele><time>2026-05-02T09:13:58.367Z</time></trkpt><trkpt lat="44.1279752" lon="11.1955002"><ele>742.75</ele><time>2026-05-02T09:13:59.368Z</time></trkpt><trkpt lat="44.1280979" lon="11.1953961"><ele>741.5</ele><time>2026-05-02T09:14:00.372Z</time></trkpt><trkpt lat="44.1282241" lon="11.1953049"><ele>740.25</ele><time>2026-05-02T09:14:01.361Z</time></trkpt><trkpt lat="44.1283398" lon="11.1952276"><ele>739.0</ele><time>2026-05-02T09:14:02.366Z</time></trkpt><trkpt lat="44.1284532" lon="11.1951402"><ele>739.0</ele><time>2026-05-02T09:14:03.366Z</time></trkpt><trkpt lat="44.1285559" lon="11.1950276"><ele>739.0</ele><time>2026-05-02T09:14:04.367Z</time></trkpt><trkpt lat="44.1286457" lon="11.1949044"><ele>739.0</ele><time>2026-05-02T09:14:05.376Z</time></trkpt><trkpt lat="44.1287195" lon="11.1947387"><ele>739.0</ele><time>2026-05-02T09:14:06.37Z</time></trkpt><trkpt lat="44.1287783" lon="11.1945753"><ele>744.25</ele><time>2026-05-02T09:14:07.372Z</time></trkpt><trkpt lat="44.1288371" lon="11.1944194"><ele>749.5</ele><time>2026-05-02T09:14:08.367Z</time></trkpt><trkpt lat="44.1289014" lon="11.1942748"><ele>754.75</ele><time>2026-05-02T09:14:09.369Z</time></trkpt><trkpt lat="44.1289684" lon="11.1941422"><ele>760.0</ele><time>2026-05-02T09:14:10.368Z</time></trkpt><trkpt lat="44.1290414" lon="11.1940207"><ele>751.0</ele><time>2026-05-02T09:14:11.369Z</time></trkpt><trkpt lat="44.1291092" lon="11.1939061"><ele>742.0</ele><time>2026-05-02T09:14:12.365Z</time></trkpt><trkpt lat="44.1291699" lon="11.1937969"><ele>733.0</ele><time>2026-05-02T09:14:13.368Z</time></trkpt><trkpt lat="44.1292015" lon="11.1936899"><ele>724.0</ele><time>2026-05-02T09:14:14.372Z</time></trkpt><trkpt lat="44.1291879" lon="11.193576"><ele>715.0</ele><time>2026-05-02T09:14:15.384Z</time></trkpt><trkpt lat="44.1291354" lon="11.1934674"><ele>715.0</ele><time>2026-05-02T09:14:16.369Z</time></trkpt><trkpt lat="44.1290655" lon="11.193361"><ele>715.0</ele><time>2026-05-02T09:14:17.373Z</time></trkpt><trkpt lat="44.1289984" lon="11.1932615"><ele>715.0</ele><time>2026-05-02T09:14:18.368Z</time></trkpt><trkpt lat="44.1289401" lon="11.1931513"><ele>715.0</ele><time>2026-05-02T09:14:19.364Z</time></trkpt><trkpt lat="44.1288955" lon="11.1930448"><ele>715.0</ele><time>2026-05-02T09:14:20.369Z</time></trkpt><trkpt lat="44.1288688" lon="11.1929366"><ele>712.8</ele><time>2026-05-02T09:14:21.364Z</time></trkpt><trkpt lat="44.1288726" lon="11.1928446"><ele>710.6</ele><time>2026-05-02T09:14:22.368Z</time></trkpt><trkpt lat="44.1289257" lon="11.1927973"><ele>708.4000000000001</ele><time>2026-05-02T09:14:23.365Z</time></trkpt><trkpt lat="44.1290164" lon="11.1927995"><ele>706.2</ele><time>2026-05-02T09:14:24.367Z</time></trkpt><trkpt lat="44.1291267" lon="11.1928544"><ele>704.0</ele><time>2026-05-02T09:14:25.361Z</time></trkpt><trkpt lat="44.1292398" lon="11.1929176"><ele>704.0</ele><time>2026-05-02T09:14:26.364Z</time></trkpt><trkpt lat="44.1293486" lon="11.1929736"><ele>704.0</ele><time>2026-05-02T09:14:27.367Z</time></trkpt><trkpt lat="44.1294489" lon="11.1930125"><ele>704.0</ele><time>2026-05-02T09:14:28.364Z</time></trkpt><trkpt lat="44.1295454" lon="11.1930404"><ele>704.0</ele><time>2026-05-02T09:14:29.362Z</time></trkpt><trkpt lat="44.1296434" lon="11.1930507"><ele>704.0</ele><time>2026-05-02T09:14:30.366Z</time></trkpt><trkpt lat="44.1297469" lon="11.1930523"><ele>704.0</ele><time>2026-05-02T09:14:31.367Z</time></trkpt><trkpt lat="44.1298546" lon="11.1930421"><ele>704.0</ele><time>2026-05-02T09:14:32.37Z</time></trkpt><trkpt lat="44.1299617" lon="11.193026"><ele>704.0</ele><time>2026-05-02T09:14:33.372Z</time></trkpt><trkpt lat="44.1300682" lon="11.1930092"><ele>704.0</ele><time>2026-05-02T09:14:34.372Z</time></trkpt><trkpt lat="44.1301702" lon="11.192998"><ele>704.0</ele><time>2026-05-02T09:14:35.378Z</time></trkpt><trkpt lat="44.1302684" lon="11.1929872"><ele>702.8333333333333</ele><time>2026-05-02T09:14:36.376Z</time></trkpt><trkpt lat="44.1303698" lon="11.1929914"><ele>701.6666666666666</ele><time>2026-05-02T09:14:37.378Z</time></trkpt><trkpt lat="44.1304649" lon="11.1930182"><ele>700.5</ele><time>2026-05-02T09:14:38.378Z</time></trkpt><trkpt lat="44.1305404" lon="11.1930789"><ele>699.3333333333334</ele><time>2026-05-02T09:14:39.376Z</time></trkpt><trkpt lat="44.1305979" lon="11.193142"><ele>698.1666666666667</ele><time>2026-05-02T09:14:40.372Z</time></trkpt><trkpt lat="44.1306577" lon="11.1931883"><ele>697.0</ele><time>2026-05-02T09:14:41.374Z</time></trkpt><trkpt lat="44.1307484" lon="11.1932569"><ele>696.3333333333334</ele><time>2026-05-02T09:14:43.375Z</time></trkpt><trkpt lat="44.1308139" lon="11.1932902"><ele>695.6666666666667</ele><time>2026-05-02T09:14:47.384Z</time></trkpt><trkpt lat="44.1308803" lon="11.1932791"><ele>695.0</ele><time>2026-05-02T09:14:54.396Z</time></trkpt><trkpt lat="44.1308953" lon="11.1931599"><ele>694.3333333333334</ele><time>2026-05-02T09:14:56.386Z</time></trkpt><trkpt lat="44.1309122" lon="11.1930022"><ele>693.6666666666666</ele><time>2026-05-02T09:14:58.378Z</time></trkpt><trkpt lat="44.1309714" lon="11.1929013"><ele>693.0</ele><time>2026-05-02T09:15:00.388Z</time></trkpt><trkpt lat="44.1310664" lon="11.192861"><ele>692.4</ele><time>2026-05-02T09:15:02.385Z</time></trkpt><trkpt lat="44.1311433" lon="11.1928656"><ele>691.8</ele><time>2026-05-02T09:15:03.381Z</time></trkpt><trkpt lat="44.1312271" lon="11.1928683"><ele>691.2</ele><time>2026-05-02T09:15:04.381Z</time></trkpt><trkpt lat="44.1313226" lon="11.1928766"><ele>690.6</ele><time>2026-05-02T09:15:05.383Z</time></trkpt><trkpt lat="44.1314215" lon="11.1928812"><ele>690.0</ele><time>2026-05-02T09:15:06.381Z</time></trkpt><trkpt lat="44.1315207" lon="11.1928869"><ele>690.0</ele><time>2026-05-02T09:15:07.384Z</time></trkpt><trkpt lat="44.1316239" lon="11.1929049"><ele>690.0</ele><time>2026-05-02T09:15:08.38Z</time></trkpt><trkpt lat="44.1317324" lon="11.1929358"><ele>690.0</ele><time>2026-05-02T09:15:09.383Z</time></trkpt><trkpt lat="44.1318424" lon="11.1929972"><ele>690.0</ele><time>2026-05-02T09:15:10.384Z</time></trkpt><trkpt lat="44.1319528" lon="11.1930726"><ele>690.0</ele><time>2026-05-02T09:15:11.383Z</time></trkpt><trkpt lat="44.1320661" lon="11.193148"><ele>690.0</ele><time>2026-05-02T09:15:12.385Z</time></trkpt><trkpt lat="44.1321794" lon="11.193213"><ele>690.0</ele><time>2026-05-02T09:15:13.382Z</time></trkpt><trkpt lat="44.1322912" lon="11.1932702"><ele>690.0</ele><time>2026-05-02T09:15:14.382Z</time></trkpt><trkpt lat="44.1323999" lon="11.1933046"><ele>691.0</ele><time>2026-05-02T09:15:15.379Z</time></trkpt><trkpt lat="44.1325072" lon="11.1933271"><ele>692.0</ele><time>2026-05-02T09:15:16.379Z</time></trkpt><trkpt lat="44.1326144" lon="11.193334"><ele>693.0</ele><time>2026-05-02T09:15:17.406Z</time></trkpt><trkpt lat="44.1327188" lon="11.1933213"><ele>694.0</ele><time>2026-05-02T09:15:18.379Z</time></trkpt><trkpt lat="44.1328131" lon="11.1932872"><ele>695.0</ele><time>2026-05-02T09:15:19.381Z</time></trkpt><trkpt lat="44.1328918" lon="11.1932381"><ele>695.0</ele><time>2026-05-02T09:15:20.377Z</time></trkpt><trkpt lat="44.1329615" lon="11.1931902"><ele>695.0</ele><time>2026-05-02T09:15:21.382Z</time></trkpt><trkpt lat="44.1330288" lon="11.1931511"><ele>695.0</ele><time>2026-05-02T09:15:22.378Z</time></trkpt><trkpt lat="44.1330883" lon="11.1931189"><ele>695.0</ele><time>2026-05-02T09:15:23.373Z</time></trkpt><trkpt lat="44.1331999" lon="11.1930713"><ele>695.0</ele><time>2026-05-02T09:15:25.378Z</time></trkpt><trkpt lat="44.1332955" lon="11.1930437"><ele>695.0</ele><time>2026-05-02T09:15:27.373Z</time></trkpt><trkpt lat="44.1333725" lon="11.1930231"><ele>696.3333333333333</ele><time>2026-05-02T09:15:29.369Z</time></trkpt><trkpt lat="44.1334354" lon="11.19299"><ele>697.6666666666666</ele><time>2026-05-02T09:15:31.379Z</time></trkpt><trkpt lat="44.1334969" lon="11.1928858"><ele>699.0</ele><time>2026-05-02T09:15:33.373Z</time></trkpt><trkpt lat="44.1335204" lon="11.1928035"><ele>700.3333333333334</ele><time>2026-05-02T09:15:34.366Z</time></trkpt><trkpt lat="44.1335349" lon="11.1927122"><ele>701.6666666666667</ele><time>2026-05-02T09:15:35.371Z</time></trkpt><trkpt lat="44.1335572" lon="11.1926296"><ele>703.0</ele><time>2026-05-02T09:15:36.366Z</time></trkpt><trkpt lat="44.133605" lon="11.1925062"><ele>703.0</ele><time>2026-05-02T09:15:38.365Z</time></trkpt><trkpt lat="44.133636" lon="11.192415"><ele>703.0</ele><time>2026-05-02T09:15:40.37Z</time></trkpt><trkpt lat="44.1336724" lon="11.1923284"><ele>703.0</ele><time>2026-05-02T09:15:42.371Z</time></trkpt><trkpt lat="44.1337083" lon="11.1922021"><ele>703.0</ele><time>2026-05-02T09:15:44.37Z</time></trkpt><trkpt lat="44.1337336" lon="11.1920496"><ele>703.0</ele><time>2026-05-02T09:15:46.36Z</time></trkpt><trkpt lat="44.1337339" lon="11.1918836"><ele>699.8</ele><time>2026-05-02T09:15:48.363Z</time></trkpt><trkpt lat="44.1337307" lon="11.1917413"><ele>696.5999999999999</ele><time>2026-05-02T09:15:50.369Z</time></trkpt><trkpt lat="44.1337376" lon="11.1916013"><ele>693.4000000000001</ele><time>2026-05-02T09:15:52.363Z</time></trkpt><trkpt lat="44.1337493" lon="11.191457"><ele>690.2</ele><time>2026-05-02T09:15:54.369Z</time></trkpt><trkpt lat="44.1337694" lon="11.1913179"><ele>687.0</ele><time>2026-05-02T09:15:56.358Z</time></trkpt><trkpt lat="44.1338349" lon="11.191179"><ele>685.2</ele><time>2026-05-02T09:15:58.365Z</time></trkpt><trkpt lat="44.1338801" lon="11.1911151"><ele>683.4000000000001</ele><time>2026-05-02T09:15:59.36Z</time></trkpt><trkpt lat="44.1339545" lon="11.190987"><ele>681.5999999999999</ele><time>2026-05-02T09:16:01.36Z</time></trkpt><trkpt lat="44.1339757" lon="11.1908565"><ele>679.8</ele><time>2026-05-02T09:16:03.359Z</time></trkpt><trkpt lat="44.1339814" lon="11.1907203"><ele>678.0</ele><time>2026-05-02T09:16:05.365Z</time></trkpt><trkpt lat="44.1340037" lon="11.190587"><ele>676.0</ele><time>2026-05-02T09:16:07.363Z</time></trkpt><trkpt lat="44.1340223" lon="11.190429"><ele>674.0</ele><time>2026-05-02T09:16:09.364Z</time></trkpt><trkpt lat="44.1340414" lon="11.1903411"><ele>672.0</ele><time>2026-05-02T09:16:10.365Z</time></trkpt><trkpt lat="44.1340614" lon="11.1902509"><ele>670.0</ele><time>2026-05-02T09:16:11.36Z</time></trkpt><trkpt lat="44.134089" lon="11.1901565"><ele>668.0</ele><time>2026-05-02T09:16:12.363Z</time></trkpt><trkpt lat="44.1341185" lon="11.1900585"><ele>666.0</ele><time>2026-05-02T09:16:13.36Z</time></trkpt><trkpt lat="44.1341498" lon="11.1899743"><ele>669.5</ele><time>2026-05-02T09:16:14.36Z</time></trkpt><trkpt lat="44.1341812" lon="11.1898733"><ele>673.0</ele><time>2026-05-02T09:16:15.361Z</time></trkpt><trkpt lat="44.1342115" lon="11.1897645"><ele>676.5</ele><time>2026-05-02T09:16:16.36Z</time></trkpt><trkpt lat="44.1342454" lon="11.1896658"><ele>680.0</ele><time>2026-05-02T09:16:17.357Z</time></trkpt><trkpt lat="44.1342801" lon="11.1895635"><ele>683.5</ele><time>2026-05-02T09:16:18.368Z</time></trkpt><trkpt lat="44.1343226" lon="11.1894534"><ele>687.0</ele><time>2026-05-02T09:16:19.355Z</time></trkpt><trkpt lat="44.1343621" lon="11.1893559"><ele>687.0</ele><time>2026-05-02T09:16:20.356Z</time></trkpt><trkpt lat="44.1344103" lon="11.1892606"><ele>687.0</ele><time>2026-05-02T09:16:21.364Z</time></trkpt><trkpt lat="44.1344525" lon="11.1891687"><ele>687.0</ele><time>2026-05-02T09:16:22.362Z</time></trkpt><trkpt lat="44.1344812" lon="11.1890754"><ele>687.0</ele><time>2026-05-02T09:16:23.363Z</time></trkpt><trkpt lat="44.1345181" lon="11.1889967"><ele>687.0</ele><time>2026-05-02T09:16:24.37Z</time></trkpt><trkpt lat="44.1345514" lon="11.1889069"><ele>687.0</ele><time>2026-05-02T09:16:25.363Z</time></trkpt><trkpt lat="44.1345792" lon="11.1888165"><ele>687.0</ele><time>2026-05-02T09:16:26.365Z</time></trkpt><trkpt lat="44.1346098" lon="11.1887226"><ele>685.0</ele><time>2026-05-02T09:16:27.364Z</time></trkpt><trkpt lat="44.1346436" lon="11.1886322"><ele>683.0</ele><time>2026-05-02T09:16:28.359Z</time></trkpt><trkpt lat="44.1346799" lon="11.1885394"><ele>681.0</ele><time>2026-05-02T09:16:29.36Z</time></trkpt><trkpt lat="44.1347095" lon="11.1884519"><ele>679.0</ele><time>2026-05-02T09:16:30.363Z</time></trkpt><trkpt lat="44.1347418" lon="11.1883746"><ele>677.0</ele><time>2026-05-02T09:16:31.358Z</time></trkpt><trkpt lat="44.1347742" lon="11.1882978"><ele>675.0</ele><time>2026-05-02T09:16:32.363Z</time></trkpt><trkpt lat="44.1348178" lon="11.188232"><ele>673.0</ele><time>2026-05-02T09:16:33.36Z</time></trkpt><trkpt lat="44.1348782" lon="11.1881004"><ele>679.5</ele><time>2026-05-02T09:16:35.366Z</time></trkpt><trkpt lat="44.134897" lon="11.1879559"><ele>686.0</ele><time>2026-05-02T09:16:37.361Z</time></trkpt><trkpt lat="44.1349035" lon="11.1878175"><ele>692.5</ele><time>2026-05-02T09:16:39.36Z</time></trkpt><trkpt lat="44.1349001" lon="11.1876989"><ele>699.0</ele><time>2026-05-02T09:16:41.365Z</time></trkpt><trkpt lat="44.1349168" lon="11.1876131"><ele>705.5</ele><time>2026-05-02T09:16:57.374Z</time></trkpt><trkpt lat="44.1349325" lon="11.1875117"><ele>712.0</ele><time>2026-05-02T09:17:00.373Z</time></trkpt><trkpt lat="44.1349601" lon="11.1873805"><ele>710.8</ele><time>2026-05-02T09:17:03.37Z</time></trkpt><trkpt lat="44.1349789" lon="11.1871965"><ele>709.6</ele><time>2026-05-02T09:17:05.369Z</time></trkpt><trkpt lat="44.1349912" lon="11.1870865"><ele>708.4</ele><time>2026-05-02T09:17:06.362Z</time></trkpt><trkpt lat="44.135007" lon="11.1869643"><ele>707.1999999999999</ele><time>2026-05-02T09:17:07.362Z</time></trkpt><trkpt lat="44.1350168" lon="11.1868407"><ele>706.0</ele><time>2026-05-02T09:17:08.362Z</time></trkpt><trkpt lat="44.1350281" lon="11.1867343"><ele>706.0</ele><time>2026-05-02T09:17:09.364Z</time></trkpt><trkpt lat="44.1350355" lon="11.186637"><ele>706.0</ele><time>2026-05-02T09:17:10.362Z</time></trkpt><trkpt lat="44.1350447" lon="11.186543"><ele>706.0</ele><time>2026-05-02T09:17:11.359Z</time></trkpt><trkpt lat="44.1350577" lon="11.1864497"><ele>706.0</ele><time>2026-05-02T09:17:12.366Z</time></trkpt><trkpt lat="44.1350653" lon="11.1863457"><ele>706.0</ele><time>2026-05-02T09:17:13.359Z</time></trkpt><trkpt lat="44.1350827" lon="11.1862552"><ele>706.0</ele><time>2026-05-02T09:17:14.362Z</time></trkpt><trkpt lat="44.1351073" lon="11.1861666"><ele>706.0</ele><time>2026-05-02T09:17:15.361Z</time></trkpt><trkpt lat="44.1351449" lon="11.1860891"><ele>704.6666666666667</ele><time>2026-05-02T09:17:16.363Z</time></trkpt><trkpt lat="44.1351868" lon="11.1860129"><ele>703.3333333333334</ele><time>2026-05-02T09:17:17.365Z</time></trkpt><trkpt lat="44.1352275" lon="11.1859377"><ele>702.0</ele><time>2026-05-02T09:17:18.362Z</time></trkpt><trkpt lat="44.1352701" lon="11.1858629"><ele>700.6666666666666</ele><time>2026-05-02T09:17:19.367Z</time></trkpt><trkpt lat="44.1353154" lon="11.1857905"><ele>699.3333333333333</ele><time>2026-05-02T09:17:20.379Z</time></trkpt><trkpt lat="44.1354037" lon="11.1856758"><ele>698.0</ele><time>2026-05-02T09:17:22.366Z</time></trkpt><trkpt lat="44.1354608" lon="11.1856279"><ele>699.5</ele><time>2026-05-02T09:17:23.366Z</time></trkpt><trkpt lat="44.1355214" lon="11.1855969"><ele>701.0</ele><time>2026-05-02T09:17:24.366Z</time></trkpt><trkpt lat="44.1355881" lon="11.1856031"><ele>702.5</ele><time>2026-05-02T09:17:25.368Z</time></trkpt><trkpt lat="44.1356552" lon="11.185629"><ele>704.0</ele><time>2026-05-02T09:17:26.363Z</time></trkpt><trkpt lat="44.1357471" lon="11.1857281"><ele>705.5</ele><time>2026-05-02T09:17:28.363Z</time></trkpt><trkpt lat="44.1358262" lon="11.1858338"><ele>707.0</ele><time>2026-05-02T09:17:30.366Z</time></trkpt><trkpt lat="44.1359192" lon="11.1859289"><ele>707.0</ele><time>2026-05-02T09:17:32.37Z</time></trkpt><trkpt lat="44.1360153" lon="11.1860058"><ele>707.0</ele><time>2026-05-02T09:17:34.369Z</time></trkpt><trkpt lat="44.1361153" lon="11.1860659"><ele>707.0</ele><time>2026-05-02T09:17:36.375Z</time></trkpt><trkpt lat="44.13619" lon="11.1861354"><ele>707.0</ele><time>2026-05-02T09:17:38.367Z</time></trkpt><trkpt lat="44.1362182" lon="11.1862406"><ele>707.0</ele><time>2026-05-02T09:17:40.375Z</time></trkpt><trkpt lat="44.1362351" lon="11.1863372"><ele>707.0</ele><time>2026-05-02T09:17:42.375Z</time></trkpt><trkpt lat="44.1362927" lon="11.1864148"><ele>707.0</ele><time>2026-05-02T09:17:44.369Z</time></trkpt><trkpt lat="44.1363894" lon="11.186467"><ele>707.0</ele><time>2026-05-02T09:17:46.366Z</time></trkpt><trkpt lat="44.1364849" lon="11.1864951"><ele>707.0</ele><time>2026-05-02T09:17:48.371Z</time></trkpt><trkpt lat="44.1365748" lon="11.1865381"><ele>707.0</ele><time>2026-05-02T09:17:50.372Z</time></trkpt><trkpt lat="44.1366789" lon="11.1865853"><ele>708.6666666666666</ele><time>2026-05-02T09:17:52.374Z</time></trkpt><trkpt lat="44.1367776" lon="11.1866231"><ele>710.3333333333333</ele><time>2026-05-02T09:17:54.369Z</time></trkpt><trkpt lat="44.1368399" lon="11.1866477"><ele>712.0</ele><time>2026-05-02T09:17:57.37Z</time></trkpt><trkpt lat="44.1369138" lon="11.1866909"><ele>713.6666666666666</ele><time>2026-05-02T09:18:13.373Z</time></trkpt><trkpt lat="44.1369782" lon="11.1867051"><ele>715.3333333333334</ele><time>2026-05-02T09:18:15.376Z</time></trkpt><trkpt lat="44.1370721" lon="11.1867048"><ele>717.0</ele><time>2026-05-02T09:18:17.379Z</time></trkpt><trkpt lat="44.1371562" lon="11.1867302"><ele>717.0</ele><time>2026-05-02T09:18:19.383Z</time></trkpt><trkpt lat="44.1372274" lon="11.1867819"><ele>717.0</ele><time>2026-05-02T09:18:21.386Z</time></trkpt><trkpt lat="44.1372806" lon="11.186854"><ele>717.0</ele><time>2026-05-02T09:18:23.394Z</time></trkpt><trkpt lat="44.1373041" lon="11.1869839"><ele>717.0</ele><time>2026-05-02T09:18:26.399Z</time></trkpt><trkpt lat="44.137317" lon="11.1871065"><ele>717.0</ele><time>2026-05-02T09:18:28.394Z</time></trkpt><trkpt lat="44.137337" lon="11.1872559"><ele>717.0</ele><time>2026-05-02T09:18:30.4Z</time></trkpt><trkpt lat="44.1373338" lon="11.1874152"><ele>720.6</ele><time>2026-05-02T09:18:32.406Z</time></trkpt><trkpt lat="44.1373274" lon="11.1875043"><ele>724.2</ele><time>2026-05-02T09:18:33.383Z</time></trkpt><trkpt lat="44.137318" lon="11.187599"><ele>727.8</ele><time>2026-05-02T09:18:34.377Z</time></trkpt><trkpt lat="44.137295" lon="11.1877679"><ele>731.4</ele><time>2026-05-02T09:18:36.377Z</time></trkpt><trkpt lat="44.1372888" lon="11.187921"><ele>735.0</ele><time>2026-05-02T09:18:38.376Z</time></trkpt><trkpt lat="44.1372865" lon="11.1880453"><ele>735.0</ele><time>2026-05-02T09:18:40.373Z</time></trkpt><trkpt lat="44.1372837" lon="11.1881536"><ele>735.0</ele><time>2026-05-02T09:18:42.379Z</time></trkpt><trkpt lat="44.1372823" lon="11.1882711"><ele>735.0</ele><time>2026-05-02T09:18:44.379Z</time></trkpt><trkpt lat="44.1372704" lon="11.1884039"><ele>735.0</ele><time>2026-05-02T09:18:46.379Z</time></trkpt><trkpt lat="44.1372592" lon="11.1884975"><ele>735.0</ele><time>2026-05-02T09:18:48.381Z</time></trkpt><trkpt lat="44.1372538" lon="11.1885882"><ele>735.0</ele><time>2026-05-02T09:18:50.377Z</time></trkpt><trkpt lat="44.1372494" lon="11.188687"><ele>747.0</ele><time>2026-05-02T09:18:52.377Z</time></trkpt><trkpt lat="44.1372402" lon="11.1888154"><ele>747.0</ele><time>2026-05-02T09:18:54.379Z</time></trkpt><trkpt lat="44.1372224" lon="11.1889473"><ele>747.0</ele><time>2026-05-02T09:18:56.373Z</time></trkpt><trkpt lat="44.137211" lon="11.18907"><ele>744.0</ele><time>2026-05-02T09:18:58.38Z</time></trkpt></trkseg></trk></gpx>